Terminal Aerodrome Forecast
Issued by NWS Sterling, VA

Home | Current Version | Previous Version | Text Only | Print | Product List | Glossary On
Versions: 1 2 3 4 5 6 7 8 9 10 11 12 13 14 15 16 17 18 19 20 21 22
000
FTUS41 KLWX 302101 AAA
TAFDCA
TAF AMD
KDCA 302101Z 3021/3118 02006KT P6SM BKN070
     FM310000 09006KT P6SM SCT060
     FM310200 VRB04KT P6SM SCT150
     FM311500 17006KT P6SM SCT050=

USA.gov is the U.S. government's official web portal to all federal, state and local government web resources and services.